createdAt,value
2019-02-20T00:00:18.249Z,101177.00
2019-02-20T00:02:48.597Z,101185.00
2019-02-20T00:05:19.368Z,101184.00
2019-02-20T00:07:50.261Z,101185.00
2019-02-20T00:10:20.570Z,101187.00
2019-02-20T00:12:51.431Z,101190.00
2019-02-20T00:15:21.801Z,101197.00
2019-02-20T00:17:52.435Z,101188.00
2019-02-20T00:20:22.804Z,101181.00
2019-02-20T00:22:53.458Z,101182.00
2019-02-20T00:25:24.143Z,101180.00
2019-02-20T00:27:54.893Z,101182.00
2019-02-20T00:30:25.508Z,101180.00
2019-02-20T00:32:55.851Z,101177.00
2019-02-20T00:35:26.452Z,101178.00
2019-02-20T00:37:56.862Z,101182.00
2019-02-20T00:40:27.319Z,101183.00
2019-02-20T00:42:57.641Z,101183.00
2019-02-20T00:45:46.916Z,101185.00
2019-02-20T00:48:31.024Z,101191.00
2019-02-20T00:51:10.368Z,101187.00
2019-02-20T00:53:46.966Z,101187.00
2019-02-20T00:56:17.657Z,101188.00
2019-02-20T00:58:57.092Z,101195.00
2019-02-20T01:01:27.400Z,101185.00
2019-02-20T01:03:57.773Z,101192.00
2019-02-20T01:06:28.205Z,101200.00
2019-02-20T01:08:58.804Z,101195.00
2019-02-20T01:11:29.187Z,101194.00
2019-02-20T01:13:59.768Z,101197.00
2019-02-20T01:16:59.456Z,101201.00
2019-02-20T01:19:29.786Z,101202.00
2019-02-20T01:22:00.121Z,101196.00
2019-02-20T01:24:30.450Z,101208.00
2019-02-20T01:27:01.049Z,101193.00
2019-02-20T01:29:31.416Z,101199.00
2019-02-20T01:32:01.718Z,101199.00
2019-02-20T01:34:32.105Z,101191.00
2019-02-20T01:37:02.424Z,101195.00
2019-02-20T01:39:32.764Z,101195.00
2019-02-20T01:42:03.099Z,101191.00
2019-02-20T01:44:33.485Z,101196.00
2019-02-20T01:47:04.137Z,101204.00
2019-02-20T01:49:34.474Z,101200.00
2019-02-20T01:52:05.610Z,101195.00
2019-02-20T01:54:36.258Z,101194.00
2019-02-20T01:57:06.846Z,101197.00
2019-02-20T01:59:37.151Z,101192.00
2019-02-20T02:02:07.751Z,101190.00
2019-02-20T02:04:38.140Z,101192.00
2019-02-20T02:07:08.570Z,101182.00
2019-02-20T02:09:39.192Z,101198.00
2019-02-20T02:12:09.533Z,101187.00
2019-02-20T02:14:40.161Z,101182.00
2019-02-20T02:17:10.535Z,101183.00
2019-02-20T02:19:41.185Z,101184.00
2019-02-20T02:22:11.532Z,101198.00
2019-02-20T02:24:42.481Z,101183.00
2019-02-20T02:27:12.875Z,101188.00
2019-02-20T02:29:43.220Z,101189.00
2019-02-20T02:32:13.542Z,101179.00
2019-02-20T02:34:44.288Z,101180.00
2019-02-20T02:37:14.652Z,101182.00
2019-02-20T02:39:45.058Z,101174.00
2019-02-20T02:42:15.664Z,101172.00
2019-02-20T02:44:45.983Z,101165.00
2019-02-20T02:47:16.741Z,101167.00
2019-02-20T02:49:47.341Z,101164.00
2019-02-20T02:52:17.930Z,101167.00
2019-02-20T02:54:48.479Z,101164.00
2019-02-20T02:57:18.785Z,101170.00
2019-02-20T02:59:49.344Z,101169.00
2019-02-20T03:02:19.695Z,101171.00
2019-02-20T03:04:49.952Z,101170.00
2019-02-20T03:07:20.562Z,101157.00
2019-02-20T03:09:50.896Z,101157.00
2019-02-20T03:12:21.629Z,101164.00
2019-02-20T03:14:52.546Z,101169.00
2019-02-20T03:17:22.993Z,101169.00
2019-02-20T03:19:53.268Z,101170.00
2019-02-20T03:22:23.603Z,101157.00
2019-02-20T03:24:54.301Z,101172.00
2019-02-20T03:27:25.026Z,101171.00
2019-02-20T03:29:55.345Z,101174.00
2019-02-20T03:32:26.045Z,101169.00
2019-02-20T03:35:00.524Z,101176.00
2019-02-20T03:37:31.088Z,101174.00
2019-02-20T03:40:01.881Z,101176.00
2019-02-20T03:42:32.560Z,101172.00
2019-02-20T03:45:02.902Z,101167.00
2019-02-20T03:47:33.516Z,101162.00
2019-02-20T03:50:03.987Z,101169.00
2019-02-20T03:52:34.341Z,101176.00
2019-02-20T03:55:04.808Z,101177.00
2019-02-20T03:57:35.391Z,101179.00
2019-02-20T04:00:06.805Z,101177.00
2019-02-20T04:02:37.856Z,101171.00
2019-02-20T04:05:09.175Z,101172.00
2019-02-20T04:07:40.032Z,101177.00
2019-02-20T04:10:10.365Z,101171.00
2019-02-20T04:12:40.654Z,101161.00
2019-02-20T04:15:11.297Z,101164.00
2019-02-20T04:17:42.041Z,101174.00
2019-02-20T04:20:12.357Z,101164.00
2019-02-20T04:22:43.111Z,101165.00
2019-02-20T04:25:17.869Z,101172.00
2019-02-20T04:27:48.225Z,101168.00
2019-02-20T04:30:18.779Z,101172.00
2019-02-20T04:32:49.150Z,101174.00
2019-02-20T04:35:19.528Z,101161.00
2019-02-20T04:37:49.773Z,101176.00
2019-02-20T04:40:20.101Z,101171.00
2019-02-20T04:42:50.489Z,101166.00
2019-02-20T04:45:21.260Z,101181.00
2019-02-20T04:47:51.742Z,101182.00
2019-02-20T04:50:22.328Z,101182.00
2019-02-20T04:52:53.049Z,101182.00
2019-02-20T04:55:23.636Z,101170.00
2019-02-20T04:58:21.399Z,101182.00
2019-02-20T05:00:51.736Z,101173.00
2019-02-20T05:03:23.307Z,101174.00
2019-02-20T05:05:53.682Z,101168.00
2019-02-20T05:08:24.279Z,101171.00
2019-02-20T05:10:54.563Z,101177.00
2019-02-20T05:13:25.387Z,101178.00
2019-02-20T05:16:02.938Z,101170.00
2019-02-20T05:18:33.303Z,101185.00
2019-02-20T05:21:03.663Z,101179.00
2019-02-20T05:23:34.340Z,101179.00
2019-02-20T05:26:04.690Z,101171.00
2019-02-20T05:28:35.365Z,101164.00
2019-02-20T05:31:05.766Z,101166.00
2019-02-20T05:33:37.141Z,101162.00
2019-02-20T05:36:07.550Z,101168.00
2019-02-20T05:38:37.945Z,101170.00
2019-02-20T05:41:08.314Z,101168.00
2019-02-20T05:43:38.955Z,101172.00
2019-02-20T05:46:09.324Z,101169.00
2019-02-20T05:48:39.690Z,101179.00
2019-02-20T05:51:10.093Z,101180.00
2019-02-20T05:53:40.736Z,101183.00
2019-02-20T05:56:11.673Z,101180.00
2019-02-20T05:58:42.043Z,101182.00
2019-02-20T06:01:12.466Z,101182.00
2019-02-20T06:03:42.861Z,101183.00
2019-02-20T06:06:13.499Z,101197.00
2019-02-20T06:08:47.027Z,101193.00
2019-02-20T06:11:17.677Z,101203.00
2019-02-20T06:13:48.195Z,101197.00
2019-02-20T06:16:18.589Z,101198.00
2019-02-20T06:18:49.562Z,101202.00
2019-02-20T06:21:19.981Z,101208.00
2019-02-20T06:23:59.693Z,101208.00
2019-02-20T06:26:30.710Z,101211.00
2019-02-20T06:29:01.417Z,101214.00
2019-02-20T06:31:31.843Z,101206.00
2019-02-20T06:34:02.231Z,101223.00
2019-02-20T06:36:32.641Z,101225.00
2019-02-20T06:39:04.913Z,101235.00
2019-02-20T06:41:39.388Z,101240.00
2019-02-20T06:44:09.331Z,101223.00
2019-02-20T06:46:41.210Z,101225.00
2019-02-20T06:49:11.877Z,101241.00
2019-02-20T06:51:42.193Z,101235.00
2019-02-20T06:54:12.558Z,101238.00
2019-02-20T06:56:50.252Z,101233.00
2019-02-20T06:59:21.598Z,101243.00
2019-02-20T07:01:52.003Z,101250.00
2019-02-20T07:04:22.332Z,101248.00
2019-02-20T07:07:46.391Z,101260.00
2019-02-20T07:11:19.464Z,101252.00
2019-02-20T07:14:28.753Z,101262.00
2019-02-20T07:17:53.659Z,101266.00
2019-02-20T07:21:17.062Z,101263.00
2019-02-20T07:24:38.243Z,101256.00
2019-02-20T07:28:00.212Z,101265.00
2019-02-20T07:30:30.599Z,101273.00
2019-02-20T07:33:00.966Z,101260.00
2019-02-20T07:35:31.294Z,101271.00
2019-02-20T07:38:01.700Z,101274.00
2019-02-20T07:40:32.039Z,101271.00
2019-02-20T07:43:02.788Z,101282.00
2019-02-20T07:45:33.434Z,101272.00
2019-02-20T07:48:05.975Z,101279.00
2019-02-20T07:50:36.689Z,101287.00
2019-02-20T07:53:07.353Z,101280.00
2019-02-20T07:55:37.804Z,101292.00
2019-02-20T07:58:08.959Z,101292.00
2019-02-20T08:00:39.604Z,101300.00
2019-02-20T08:03:09.965Z,101296.00
2019-02-20T08:05:40.330Z,101292.00
2019-02-20T08:08:10.742Z,101305.00
2019-02-20T08:10:41.162Z,101293.00
2019-02-20T08:13:11.998Z,101301.00
2019-02-20T08:15:42.597Z,101298.00
2019-02-20T08:18:12.914Z,101306.00
2019-02-20T08:20:43.985Z,101306.00
2019-02-20T08:23:15.130Z,101308.00
2019-02-20T08:25:45.550Z,101318.00
2019-02-20T08:28:24.388Z,101319.00
2019-02-20T08:30:54.743Z,101311.00
2019-02-20T08:33:25.118Z,101325.00
2019-02-20T08:35:55.751Z,101328.00
2019-02-20T08:38:26.117Z,101334.00
2019-02-20T08:40:57.112Z,101336.00
2019-02-20T08:43:27.480Z,101338.00
2019-02-20T08:45:58.302Z,101331.00
2019-02-20T08:48:28.718Z,101338.00
2019-02-20T08:50:59.050Z,101346.00
2019-02-20T08:53:29.403Z,101344.00
2019-02-20T08:56:05.705Z,101342.00
2019-02-20T08:58:36.026Z,101346.00
2019-02-20T09:01:06.484Z,101347.00
2019-02-20T09:03:37.424Z,101352.00
2019-02-20T09:06:08.074Z,101348.00
2019-02-20T09:08:38.471Z,101362.00
2019-02-20T09:11:09.113Z,101362.00
2019-02-20T09:13:39.863Z,101371.00
2019-02-20T09:16:10.219Z,101361.00
2019-02-20T09:18:45.838Z,101358.00
2019-02-20T09:21:16.321Z,101352.00
2019-02-20T09:23:47.011Z,101368.00
2019-02-20T09:26:17.391Z,101374.00
2019-02-20T09:28:47.811Z,101369.00
2019-02-20T09:31:18.198Z,101370.00
2019-02-20T09:33:48.560Z,101380.00
2019-02-20T09:36:19.031Z,101368.00
2019-02-20T09:39:32.217Z,101377.00
2019-02-20T09:42:03.067Z,101364.00
2019-02-20T09:44:37.995Z,101375.00
2019-02-20T09:47:08.320Z,101382.00
2019-02-20T09:49:38.655Z,101379.00
2019-02-20T09:52:09.248Z,101384.00
2019-02-20T09:54:39.748Z,101384.00
2019-02-20T09:57:10.327Z,101381.00
2019-02-20T09:59:41.137Z,101382.00
2019-02-20T10:02:11.463Z,101392.00
2019-02-20T10:04:42.579Z,101395.00
2019-02-20T10:07:13.226Z,101398.00
2019-02-20T10:09:43.876Z,101412.00
2019-02-20T10:12:14.478Z,101400.00
2019-02-20T10:14:45.084Z,101407.00
2019-02-20T10:17:15.685Z,101406.00
2019-02-20T10:19:46.042Z,101410.00
2019-02-20T10:22:16.931Z,101412.00
2019-02-20T10:24:47.299Z,101409.00
2019-02-20T10:27:17.953Z,101411.00
2019-02-20T10:29:48.721Z,101421.00
2019-02-20T10:32:19.089Z,101418.00
2019-02-20T10:34:49.851Z,101428.00
2019-02-20T10:37:31.978Z,101419.00
2019-02-20T10:40:02.369Z,101423.00
2019-02-20T10:42:32.998Z,101429.00
2019-02-20T10:45:12.382Z,101429.00
2019-02-20T10:47:44.034Z,101417.00
2019-02-20T10:50:14.775Z,101414.00
2019-02-20T10:52:54.390Z,101417.00
2019-02-20T10:55:25.116Z,101422.00
2019-02-20T10:57:55.724Z,101421.00
2019-02-20T11:00:28.866Z,101425.00
2019-02-20T11:02:59.341Z,101420.00
2019-02-20T11:05:30.132Z,101420.00
2019-02-20T11:08:00.821Z,101423.00
2019-02-20T11:10:31.441Z,101409.00
2019-02-20T11:13:01.937Z,101419.00
2019-02-20T11:15:32.601Z,101424.00
2019-02-20T11:18:03.046Z,101427.00
2019-02-20T11:20:33.377Z,101418.00
2019-02-20T11:23:03.940Z,101423.00
2019-02-20T11:25:35.347Z,101411.00
2019-02-20T11:28:15.868Z,101407.00
2019-02-20T11:30:46.486Z,101411.00
2019-02-20T11:33:16.834Z,101420.00
2019-02-20T11:35:47.220Z,101419.00
2019-02-20T11:38:18.087Z,101416.00
2019-02-20T11:40:48.785Z,101423.00
2019-02-20T11:43:20.861Z,101419.00
2019-02-20T11:45:51.466Z,101425.00
2019-02-20T11:48:21.856Z,101419.00
2019-02-20T11:51:02.734Z,101424.00
2019-02-20T11:53:37.273Z,101413.00
2019-02-20T11:56:05.522Z,101421.00
2019-02-20T11:58:38.165Z,101411.00
2019-02-20T12:01:09.004Z,101421.00
2019-02-20T12:03:39.468Z,101418.00
2019-02-20T12:06:09.848Z,101411.00
2019-02-20T12:08:40.196Z,101416.00
2019-02-20T12:11:10.778Z,101426.00
2019-02-20T12:13:41.183Z,101419.00
2019-02-20T12:16:13.810Z,101409.00
2019-02-20T12:18:53.565Z,101407.00
2019-02-20T12:21:23.907Z,101410.00
2019-02-20T12:23:54.787Z,101407.00
2019-02-20T12:26:25.374Z,101403.00
2019-02-20T12:28:55.696Z,101406.00
2019-02-20T12:31:26.088Z,101413.00
2019-02-20T12:33:56.441Z,101413.00
2019-02-20T12:36:27.175Z,101408.00
2019-02-20T12:39:04.343Z,101408.00
2019-02-20T12:41:34.700Z,101419.00
2019-02-20T12:44:05.418Z,101422.00
2019-02-20T12:46:36.030Z,101406.00
2019-02-20T12:49:06.341Z,101408.00
2019-02-20T12:51:36.713Z,101409.00
2019-02-20T12:54:07.071Z,101419.00
2019-02-20T12:56:43.622Z,101403.00
2019-02-20T12:59:09.789Z,101417.00
2019-02-20T13:01:40.412Z,101404.00
2019-02-20T13:04:11.086Z,101402.00
2019-02-20T13:06:42.485Z,101395.00
2019-02-20T13:09:13.750Z,101401.00
2019-02-20T13:11:44.767Z,101407.00
2019-02-20T13:14:15.090Z,101403.00
2019-02-20T13:16:45.759Z,101404.00
2019-02-20T13:19:16.797Z,101406.00
2019-02-20T13:21:48.258Z,101405.00
2019-02-20T13:24:18.843Z,101390.00
2019-02-20T13:26:53.014Z,101395.00
2019-02-20T13:29:22.521Z,101391.00
2019-02-20T13:31:52.805Z,101402.00
2019-02-20T13:34:23.114Z,101392.00
2019-02-20T13:36:53.477Z,101402.00
2019-02-20T13:39:24.218Z,101403.00
2019-02-20T13:41:54.895Z,101398.00
2019-02-20T13:44:25.532Z,101389.00
2019-02-20T13:46:56.642Z,101392.00
2019-02-20T13:49:27.858Z,101395.00
2019-02-20T13:51:58.293Z,101396.00
2019-02-20T13:54:28.653Z,101380.00
2019-02-20T13:57:02.005Z,101388.00
2019-02-20T13:59:31.349Z,101392.00
2019-02-20T14:02:01.693Z,101399.00
2019-02-20T14:04:32.611Z,101401.00
2019-02-20T14:07:03.338Z,101392.00
2019-02-20T14:09:33.829Z,101400.00
2019-02-20T14:12:04.215Z,101389.00
2019-02-20T14:14:34.712Z,101401.00
2019-02-20T14:17:05.333Z,101399.00
2019-02-20T14:19:35.692Z,101394.00
2019-02-20T14:22:07.822Z,101399.00
2019-02-20T14:24:38.185Z,101406.00
2019-02-20T14:27:11.159Z,101398.00
2019-02-20T14:29:41.389Z,101394.00
2019-02-20T14:32:11.746Z,101397.00
2019-02-20T14:34:45.521Z,101397.00
2019-02-20T14:37:16.006Z,101392.00
2019-02-20T14:39:46.438Z,101392.00
2019-02-20T14:42:17.851Z,101400.00
2019-02-20T14:44:48.254Z,101407.00
2019-02-20T14:47:18.608Z,101399.00
2019-02-20T14:49:51.086Z,101398.00
2019-02-20T14:52:21.433Z,101405.00
2019-02-20T14:54:51.799Z,101406.00
2019-02-20T14:57:22.438Z,101397.00
2019-02-20T14:59:58.907Z,101407.00
2019-02-20T15:02:30.075Z,101396.00
2019-02-20T15:05:11.976Z,101408.00
2019-02-20T15:07:42.159Z,101413.00
2019-02-20T15:10:12.961Z,101412.00
2019-02-20T15:12:43.640Z,101409.00
2019-02-20T15:15:14.668Z,101417.00
2019-02-20T15:17:46.671Z,101412.00
2019-02-20T15:20:17.432Z,101400.00
2019-02-20T15:22:54.227Z,101404.00
2019-02-20T15:25:24.671Z,101412.00
2019-02-20T15:27:55.237Z,101412.00
2019-02-20T15:30:29.819Z,101418.00
2019-02-20T15:33:00.495Z,101418.00
2019-02-20T15:35:31.031Z,101408.00
2019-02-20T15:38:01.361Z,101416.00
2019-02-20T15:40:33.231Z,101427.00
2019-02-20T15:43:03.555Z,101418.00
2019-02-20T15:45:35.373Z,101422.00
2019-02-20T15:48:06.400Z,101416.00
2019-02-20T15:50:53.989Z,101421.00
2019-02-20T15:53:24.637Z,101433.00
2019-02-20T15:56:05.441Z,101426.00
2019-02-20T15:58:35.795Z,101423.00
2019-02-20T16:01:11.532Z,101431.00
2019-02-20T16:03:43.380Z,101417.00
2019-02-20T16:06:14.119Z,101425.00
2019-02-20T16:08:45.064Z,101419.00
2019-02-20T16:11:27.838Z,101421.00
2019-02-20T16:13:58.167Z,101425.00
2019-02-20T16:16:28.834Z,101424.00
2019-02-20T16:19:02.254Z,101434.00
2019-02-20T16:21:32.892Z,101430.00
2019-02-20T16:24:03.296Z,101439.00
2019-02-20T16:26:33.641Z,101437.00
2019-02-20T16:29:04.062Z,101435.00
2019-02-20T16:31:34.414Z,101434.00
2019-02-20T16:34:05.292Z,101450.00
2019-02-20T16:36:35.652Z,101448.00
2019-02-20T16:39:06.975Z,101445.00
2019-02-20T16:41:37.822Z,101448.00
2019-02-20T16:44:10.084Z,101446.00
2019-02-20T16:46:40.298Z,101444.00
2019-02-20T16:49:11.137Z,101451.00
2019-02-20T16:51:41.586Z,101452.00
2019-02-20T16:54:11.883Z,101450.00
2019-02-20T16:56:42.239Z,101450.00
2019-02-20T16:59:12.625Z,101448.00
2019-02-20T17:01:43.476Z,101449.00
2019-02-20T17:04:14.108Z,101464.00
2019-02-20T17:06:44.497Z,101456.00
2019-02-20T17:09:14.794Z,101466.00
2019-02-20T17:11:45.135Z,101467.00
2019-02-20T17:14:15.781Z,101464.00
2019-02-20T17:16:46.364Z,101471.00
2019-02-20T17:19:16.991Z,101477.00
2019-02-20T17:21:47.947Z,101479.00
2019-02-20T17:24:18.531Z,101475.00
2019-02-20T17:26:49.121Z,101479.00
2019-02-20T17:29:20.017Z,101471.00
2019-02-20T17:31:50.598Z,101485.00
2019-02-20T17:34:21.263Z,101479.00
2019-02-20T17:36:53.169Z,101479.00
2019-02-20T17:39:24.062Z,101485.00
2019-02-20T17:41:54.469Z,101483.00
2019-02-20T17:44:24.957Z,101487.00
2019-02-20T17:46:55.737Z,101480.00
2019-02-20T17:49:26.061Z,101498.00
2019-02-20T17:51:56.442Z,101494.00
2019-02-20T17:54:26.759Z,101497.00
2019-02-20T17:56:57.662Z,101487.00
2019-02-20T17:59:28.284Z,101490.00
2019-02-20T18:01:58.684Z,101494.00
2019-02-20T18:04:29.376Z,101492.00
2019-02-20T18:07:00.051Z,101497.00
2019-02-20T18:09:30.364Z,101498.00
2019-02-20T18:12:00.707Z,101495.00
2019-02-20T18:14:31.335Z,101494.00
2019-02-20T18:17:01.685Z,101502.00
2019-02-20T18:19:32.018Z,101507.00
2019-02-20T18:22:02.350Z,101510.00
2019-02-20T18:24:32.715Z,101510.00
2019-02-20T18:27:03.783Z,101502.00
2019-02-20T18:29:34.202Z,101504.00
2019-02-20T18:32:04.631Z,101512.00
2019-02-20T18:34:35.220Z,101516.00
2019-02-20T18:37:05.595Z,101503.00
2019-02-20T18:39:35.947Z,101505.00
2019-02-20T18:42:06.288Z,101505.00
2019-02-20T18:44:36.927Z,101506.00
2019-02-20T18:47:07.718Z,101511.00
2019-02-20T18:49:39.022Z,101522.00
2019-02-20T18:52:09.862Z,101523.00
2019-02-20T18:54:40.224Z,101523.00
2019-02-20T18:57:10.603Z,101531.00
2019-02-20T18:59:41.657Z,101526.00
2019-02-20T19:02:12.038Z,101526.00
2019-02-20T19:04:42.378Z,101520.00
2019-02-20T19:07:14.280Z,101519.00
2019-02-20T19:09:49.284Z,101528.00
2019-02-20T19:13:28.428Z,101527.00
2019-02-20T19:17:02.639Z,101521.00
2019-02-20T19:20:44.330Z,101520.00
2019-02-20T19:24:13.718Z,101525.00
2019-02-20T19:27:13.803Z,101531.00
2019-02-20T19:30:51.056Z,101522.00
2019-02-20T19:34:04.350Z,101529.00
2019-02-20T19:37:17.026Z,101518.00
2019-02-20T19:40:42.004Z,101506.00
2019-02-20T19:44:02.152Z,101512.00
2019-02-20T19:47:11.018Z,101507.00
2019-02-20T19:50:49.838Z,101506.00
2019-02-20T19:53:42.548Z,101506.00
2019-02-20T19:57:01.862Z,101508.00
2019-02-20T20:00:27.864Z,101508.00
2019-02-20T20:04:01.482Z,101499.00
2019-02-20T20:07:39.516Z,101494.00
2019-02-20T20:10:47.298Z,101499.00
2019-02-20T20:13:54.188Z,101495.00
2019-02-20T20:17:14.704Z,101493.00
2019-02-20T20:20:07.099Z,101495.00
2019-02-20T20:23:10.424Z,101502.00
2019-02-20T20:26:37.233Z,101497.00
2019-02-20T20:30:35.239Z,101497.00
2019-02-20T20:33:52.359Z,101491.00
2019-02-20T20:37:31.112Z,101501.00
2019-02-20T20:41:01.409Z,101495.00
2019-02-20T20:44:28.203Z,101505.00
2019-02-20T20:47:25.265Z,101499.00
2019-02-20T20:50:10.530Z,101504.00
2019-02-20T20:53:43.672Z,101501.00
2019-02-20T20:57:19.616Z,101502.00
2019-02-20T21:00:51.654Z,101508.00
2019-02-20T21:03:22.377Z,101511.00
2019-02-20T21:06:26.272Z,101513.00
2019-02-20T21:09:33.184Z,101511.00
2019-02-20T21:13:03.941Z,101511.00
2019-02-20T21:16:10.704Z,101502.00
2019-02-20T21:19:46.816Z,101509.00
2019-02-20T21:23:26.817Z,101511.00
2019-02-20T21:26:55.878Z,101509.00
2019-02-20T21:29:53.865Z,101503.00
2019-02-20T21:33:24.462Z,101512.00
2019-02-20T21:36:41.619Z,101517.00
2019-02-20T21:39:51.648Z,101526.00
2019-02-20T21:43:32.177Z,101521.00
2019-02-20T21:46:50.777Z,101518.00
2019-02-20T21:49:44.040Z,101514.00
2019-02-20T21:52:52.249Z,101520.00
2019-02-20T21:55:59.979Z,101524.00
2019-02-20T21:59:18.018Z,101524.00
2019-02-20T22:02:33.159Z,101515.00
2019-02-20T22:05:43.235Z,101523.00
2019-02-20T22:09:24.643Z,101519.00
2019-02-20T22:12:15.971Z,101522.00
2019-02-20T22:15:32.611Z,101532.00
2019-02-20T22:18:51.356Z,101520.00
2019-02-20T22:22:06.495Z,101527.00
2019-02-20T22:25:29.318Z,101524.00
2019-02-20T22:28:50.756Z,101522.00
2019-02-20T22:32:01.362Z,101515.00
2019-02-20T22:35:09.491Z,101525.00
2019-02-20T22:37:59.858Z,101522.00
2019-02-20T22:41:18.180Z,101524.00
2019-02-20T22:44:50.018Z,101525.00
2019-02-20T22:47:39.497Z,101528.00
2019-02-20T22:50:54.261Z,101530.00
2019-02-20T22:54:29.010Z,101533.00
2019-02-20T22:57:42.916Z,101537.00
2019-02-20T23:01:05.234Z,101533.00
2019-02-20T23:04:24.399Z,101533.00
2019-02-20T23:07:53.707Z,101527.00
2019-02-20T23:11:18.804Z,101532.00
2019-02-20T23:14:42.931Z,101531.00
2019-02-20T23:17:13.570Z,101544.00
2019-02-20T23:19:43.926Z,101537.00
2019-02-20T23:22:14.606Z,101524.00
2019-02-20T23:24:44.979Z,101536.00
2019-02-20T23:27:15.344Z,101531.00
2019-02-20T23:29:45.895Z,101539.00
2019-02-20T23:32:16.236Z,101542.00
2019-02-20T23:34:46.571Z,101536.00
2019-02-20T23:37:17.726Z,101540.00
2019-02-20T23:39:48.105Z,101551.00
2019-02-20T23:42:18.763Z,101550.00
2019-02-20T23:44:49.086Z,101548.00
2019-02-20T23:47:19.463Z,101541.00
2019-02-20T23:49:50.043Z,101549.00
2019-02-20T23:52:20.423Z,101555.00
2019-02-20T23:54:50.792Z,101553.00
2019-02-20T23:57:21.131Z,101546.00
2019-02-20T23:59:51.740Z,101548.00
